sensor_id;sensor_type;location;lat;lon;timestamp;pressure;altitude;pressure_sealevel;temperature;humidity
47985;BME280;33753;52.912;-7.342;2023-05-29T00:00:27;101557.00;;;9.19;100.00
47985;BME280;33753;52.912;-7.342;2023-05-29T00:02:55;101558.00;;;9.18;100.00
47985;BME280;33753;52.912;-7.342;2023-05-29T00:05:24;101554.13;;;9.10;100.00
47985;BME280;33753;52.912;-7.342;2023-05-29T00:07:52;101560.78;;;9.06;100.00
47985;BME280;33753;52.912;-7.342;2023-05-29T00:10:20;101558.38;;;9.03;100.00
47985;BME280;33753;52.912;-7.342;2023-05-29T00:12:48;101555.34;;;8.96;100.00
47985;BME280;33753;52.912;-7.342;2023-05-29T00:15:19;101555.63;;;8.93;100.00
47985;BME280;33753;52.912;-7.342;2023-05-29T00:17:47;101562.97;;;8.91;100.00
47985;BME280;33753;52.912;-7.342;2023-05-29T00:20:16;101571.19;;;8.90;100.00
47985;BME280;33753;52.912;-7.342;2023-05-29T00:22:45;101570.34;;;8.89;100.00
47985;BME280;33753;52.912;-7.342;2023-05-29T00:25:14;101568.44;;;8.80;100.00
47985;BME280;33753;52.912;-7.342;2023-05-29T00:27:43;101570.56;;;8.76;100.00
47985;BME280;33753;52.912;-7.342;2023-05-29T00:30:11;101568.28;;;8.72;100.00
47985;BME280;33753;52.912;-7.342;2023-05-29T00:32:41;101563.06;;;8.59;100.00
47985;BME280;33753;52.912;-7.342;2023-05-29T00:35:09;101568.25;;;8.51;100.00
47985;BME280;33753;52.912;-7.342;2023-05-29T00:37:38;101565.31;;;8.42;100.00
47985;BME280;33753;52.912;-7.342;2023-05-29T00:40:06;101568.59;;;8.25;100.00
47985;BME280;33753;52.912;-7.342;2023-05-29T00:42:35;101566.66;;;8.16;100.00
47985;BME280;33753;52.912;-7.342;2023-05-29T00:45:04;101569.16;;;8.07;100.00
47985;BME280;33753;52.912;-7.342;2023-05-29T00:47:33;101575.91;;;8.02;100.00
47985;BME280;33753;52.912;-7.342;2023-05-29T00:50:04;101578.97;;;7.97;100.00
47985;BME280;33753;52.912;-7.342;2023-05-29T00:52:32;101575.56;;;7.95;100.00
47985;BME280;33753;52.912;-7.342;2023-05-29T00:55:00;101581.47;;;7.89;100.00
47985;BME280;33753;52.912;-7.342;2023-05-29T00:57:30;101577.56;;;7.82;100.00
47985;BME280;33753;52.912;-7.342;2023-05-29T00:59:58;101584.03;;;7.79;100.00
47985;BME280;33753;52.912;-7.342;2023-05-29T01:02:29;101579.00;;;7.74;100.00
47985;BME280;33753;52.912;-7.342;2023-05-29T01:04:57;101577.94;;;7.66;100.00
47985;BME280;33753;52.912;-7.342;2023-05-29T01:07:27;101581.50;;;7.66;100.00
47985;BME280;33753;52.912;-7.342;2023-05-29T01:09:56;101575.63;;;7.61;100.00
47985;BME280;33753;52.912;-7.342;2023-05-29T01:12:26;101576.84;;;7.57;100.00
47985;BME280;33753;52.912;-7.342;2023-05-29T01:15:11;101585.91;;;7.56;100.00
47985;BME280;33753;52.912;-7.342;2023-05-29T01:17:45;101581.75;;;7.52;100.00
47985;BME280;33753;52.912;-7.342;2023-05-29T01:20:18;101591.53;;;7.53;100.00
47985;BME280;33753;52.912;-7.342;2023-05-29T01:23:06;101586.66;;;7.47;100.00
47985;BME280;33753;52.912;-7.342;2023-05-29T01:25:43;101592.03;;;7.47;100.00
47985;BME280;33753;52.912;-7.342;2023-05-29T01:28:16;101588.63;;;7.44;100.00
47985;BME280;33753;52.912;-7.342;2023-05-29T01:30:48;101585.19;;;7.42;100.00
47985;BME280;33753;52.912;-7.342;2023-05-29T01:33:18;101583.00;;;7.36;100.00
47985;BME280;33753;52.912;-7.342;2023-05-29T01:35:50;101589.59;;;7.32;100.00
47985;BME280;33753;52.912;-7.342;2023-05-29T01:38:18;101588.13;;;7.28;100.00
47985;BME280;33753;52.912;-7.342;2023-05-29T01:40:47;101585.19;;;7.20;100.00
47985;BME280;33753;52.912;-7.342;2023-05-29T01:43:18;101591.06;;;7.14;100.00
47985;BME280;33753;52.912;-7.342;2023-05-29T01:45:48;101594.97;;;7.09;100.00
47985;BME280;33753;52.912;-7.342;2023-05-29T01:48:17;101597.16;;;7.04;100.00
47985;BME280;33753;52.912;-7.342;2023-05-29T01:50:46;101589.84;;;7.06;100.00
47985;BME280;33753;52.912;-7.342;2023-05-29T01:53:15;101597.16;;;7.04;100.00
47985;BME280;33753;52.912;-7.342;2023-05-29T01:55:44;101593.63;;;7.04;100.00
47985;BME280;33753;52.912;-7.342;2023-05-29T01:58:12;101601.09;;;7.00;100.00
47985;BME280;33753;52.912;-7.342;2023-05-29T02:00:43;101607.44;;;6.99;100.00
47985;BME280;33753;52.912;-7.342;2023-05-29T02:03:11;101607.03;;;6.92;100.00
47985;BME280;33753;52.912;-7.342;2023-05-29T02:05:40;101600.06;;;6.90;100.00
47985;BME280;33753;52.912;-7.342;2023-05-29T02:08:09;101606.78;;;6.84;100.00
47985;BME280;33753;52.912;-7.342;2023-05-29T02:10:38;101605.41;;;6.79;100.00
47985;BME280;33753;52.912;-7.342;2023-05-29T02:13:06;101604.81;;;6.75;100.00
47985;BME280;33753;52.912;-7.342;2023-05-29T02:15:35;101613.84;;;6.74;100.00
47985;BME280;33753;52.912;-7.342;2023-05-29T02:18:05;101600.88;;;6.68;100.00
47985;BME280;33753;52.912;-7.342;2023-05-29T02:20:34;101608.31;;;6.64;100.00
47985;BME280;33753;52.912;-7.342;2023-05-29T02:23:02;101611.00;;;6.64;100.00
47985;BME280;33753;52.912;-7.342;2023-05-29T02:25:31;101603.94;;;6.63;100.00
47985;BME280;33753;52.912;-7.342;2023-05-29T02:27:59;101602.69;;;6.56;100.00
47985;BME280;33753;52.912;-7.342;2023-05-29T02:30:28;101604.63;;;6.54;100.00
47985;BME280;33753;52.912;-7.342;2023-05-29T02:32:57;101603.13;;;6.50;100.00
47985;BME280;33753;52.912;-7.342;2023-05-29T02:35:27;101611.06;;;6.51;100.00
47985;BME280;33753;52.912;-7.342;2023-05-29T02:37:56;101622.94;;;6.49;100.00
47985;BME280;33753;52.912;-7.342;2023-05-29T02:40:24;101620.34;;;6.47;100.00
47985;BME280;33753;52.912;-7.342;2023-05-29T02:42:52;101621.47;;;6.45;100.00
47985;BME280;33753;52.912;-7.342;2023-05-29T02:45:20;101619.97;;;6.40;100.00
47985;BME280;33753;52.912;-7.342;2023-05-29T02:47:49;101618.50;;;6.36;100.00
47985;BME280;33753;52.912;-7.342;2023-05-29T02:50:18;101622.13;;;6.35;100.00
47985;BME280;33753;52.912;-7.342;2023-05-29T02:52:48;101611.63;;;6.32;100.00
47985;BME280;33753;52.912;-7.342;2023-05-29T02:55:16;101623.47;;;6.30;100.00
47985;BME280;33753;52.912;-7.342;2023-05-29T02:57:45;101617.22;;;6.29;100.00
47985;BME280;33753;52.912;-7.342;2023-05-29T03:00:15;101622.09;;;6.24;100.00
47985;BME280;33753;52.912;-7.342;2023-05-29T03:02:45;101617.72;;;6.23;100.00
47985;BME280;33753;52.912;-7.342;2023-05-29T03:05:13;101612.53;;;6.20;100.00
47985;BME280;33753;52.912;-7.342;2023-05-29T03:07:43;101621.78;;;6.16;100.00
47985;BME280;33753;52.912;-7.342;2023-05-29T03:10:13;101629.13;;;6.14;100.00
47985;BME280;33753;52.912;-7.342;2023-05-29T03:12:44;101623.13;;;6.10;100.00
47985;BME280;33753;52.912;-7.342;2023-05-29T03:15:12;101629.34;;;6.11;100.00
47985;BME280;33753;52.912;-7.342;2023-05-29T03:17:41;101632.03;;;6.11;100.00
47985;BME280;33753;52.912;-7.342;2023-05-29T03:20:14;101641.81;;;6.12;100.00
47985;BME280;33753;52.912;-7.342;2023-05-29T03:22:44;101643.63;;;6.11;100.00
47985;BME280;33753;52.912;-7.342;2023-05-29T03:25:14;101632.38;;;6.06;100.00
47985;BME280;33753;52.912;-7.342;2023-05-29T03:27:44;101639.28;;;5.97;100.00
47985;BME280;33753;52.912;-7.342;2023-05-29T03:30:17;101641.41;;;5.92;100.00
47985;BME280;33753;52.912;-7.342;2023-05-29T03:32:47;101639.06;;;5.87;100.00
47985;BME280;33753;52.912;-7.342;2023-05-29T03:35:17;101641.88;;;5.86;100.00
47985;BME280;33753;52.912;-7.342;2023-05-29T03:37:45;101639.50;;;5.81;100.00
47985;BME280;33753;52.912;-7.342;2023-05-29T03:40:15;101643.78;;;5.84;100.00
47985;BME280;33753;52.912;-7.342;2023-05-29T03:42:43;101645.22;;;5.77;100.00
47985;BME280;33753;52.912;-7.342;2023-05-29T03:45:14;101646.28;;;5.74;100.00
47985;BME280;33753;52.912;-7.342;2023-05-29T03:47:43;101642.75;;;5.74;100.00
47985;BME280;33753;52.912;-7.342;2023-05-29T03:50:12;101641.03;;;5.72;100.00
47985;BME280;33753;52.912;-7.342;2023-05-29T03:52:44;101646.41;;;5.72;100.00
47985;BME280;33753;52.912;-7.342;2023-05-29T03:55:15;101650.91;;;5.72;100.00
47985;BME280;33753;52.912;-7.342;2023-05-29T03:57:44;101641.91;;;5.73;100.00
47985;BME280;33753;52.912;-7.342;2023-05-29T04:00:14;101639.22;;;5.73;100.00
47985;BME280;33753;52.912;-7.342;2023-05-29T04:02:47;101641.25;;;5.69;100.00
47985;BME280;33753;52.912;-7.342;2023-05-29T04:05:16;101648.34;;;5.70;100.00
47985;BME280;33753;52.912;-7.342;2023-05-29T04:07:45;101652.00;;;5.69;100.00
47985;BME280;33753;52.912;-7.342;2023-05-29T04:10:16;101649.53;;;5.66;100.00
47985;BME280;33753;52.912;-7.342;2023-05-29T04:12:44;101646.84;;;5.66;100.00
47985;BME280;33753;52.912;-7.342;2023-05-29T04:15:13;101644.91;;;5.68;100.00
47985;BME280;33753;52.912;-7.342;2023-05-29T04:17:41;101643.09;;;5.69;100.00
47985;BME280;33753;52.912;-7.342;2023-05-29T04:20:11;101640.28;;;5.70;100.00
47985;BME280;33753;52.912;-7.342;2023-05-29T04:22:39;101644.66;;;5.71;100.00
47985;BME280;33753;52.912;-7.342;2023-05-29T04:25:07;101644.91;;;5.68;100.00
47985;BME280;33753;52.912;-7.342;2023-05-29T04:27:37;101647.59;;;5.68;100.00
47985;BME280;33753;52.912;-7.342;2023-05-29T04:30:08;101645.34;;;5.62;100.00
47985;BME280;33753;52.912;-7.342;2023-05-29T04:32:42;101652.56;;;5.62;100.00
47985;BME280;33753;52.912;-7.342;2023-05-29T04:35:12;101644.38;;;5.63;100.00
47985;BME280;33753;52.912;-7.342;2023-05-29T04:37:49;101653.75;;;5.58;100.00
47985;BME280;33753;52.912;-7.342;2023-05-29T04:40:17;101652.66;;;5.60;100.00
47985;BME280;33753;52.912;-7.342;2023-05-29T04:42:48;101652.66;;;5.60;100.00
47985;BME280;33753;52.912;-7.342;2023-05-29T04:45:19;101653.28;;;5.64;100.00
47985;BME280;33753;52.912;-7.342;2023-05-29T04:47:48;101660.38;;;5.65;100.00
47985;BME280;33753;52.912;-7.342;2023-05-29T04:50:16;101664.56;;;5.69;100.00
47985;BME280;33753;52.912;-7.342;2023-05-29T04:52:45;101663.47;;;5.71;100.00
47985;BME280;33753;52.912;-7.342;2023-05-29T04:55:13;101668.75;;;5.73;100.00
47985;BME280;33753;52.912;-7.342;2023-05-29T04:57:42;101669.78;;;5.83;100.00
47985;BME280;33753;52.912;-7.342;2023-05-29T05:00:13;101671.53;;;5.97;100.00
47985;BME280;33753;52.912;-7.342;2023-05-29T05:02:43;101672.63;;;6.19;100.00
47985;BME280;33753;52.912;-7.342;2023-05-29T05:05:13;101682.22;;;6.34;100.00
47985;BME280;33753;52.912;-7.342;2023-05-29T05:07:42;101684.28;;;6.55;100.00
47985;BME280;33753;52.912;-7.342;2023-05-29T05:10:11;101690.50;;;6.80;100.00
47985;BME280;33753;52.912;-7.342;2023-05-29T05:12:39;101690.34;;;7.05;100.00
47985;BME280;33753;52.912;-7.342;2023-05-29T05:15:09;101691.13;;;7.30;100.00
47985;BME280;33753;52.912;-7.342;2023-05-29T05:17:39;101691.91;;;7.55;100.00
47985;BME280;33753;52.912;-7.342;2023-05-29T05:20:08;101685.78;;;7.87;100.00
47985;BME280;33753;52.912;-7.342;2023-05-29T05:22:37;101690.16;;;8.22;100.00
47985;BME280;33753;52.912;-7.342;2023-05-29T05:25:06;101682.59;;;8.59;100.00
47985;BME280;33753;52.912;-7.342;2023-05-29T05:27:35;101685.63;;;8.87;100.00
47985;BME280;33753;52.912;-7.342;2023-05-29T05:30:03;101678.59;;;9.17;100.00
47985;BME280;33753;52.912;-7.342;2023-05-29T05:32:32;101674.16;;;9.37;100.00
47985;BME280;33753;52.912;-7.342;2023-05-29T05:35:07;101666.78;;;9.60;100.00
47985;BME280;33753;52.912;-7.342;2023-05-29T05:37:38;101667.94;;;9.77;100.00
47985;BME280;33753;52.912;-7.342;2023-05-29T05:40:07;101659.81;;;10.08;100.00
47985;BME280;33753;52.912;-7.342;2023-05-29T05:42:45;101652.78;;;10.46;100.00
47985;BME280;33753;52.912;-7.342;2023-05-29T05:45:14;101644.50;;;10.77;100.00
47985;BME280;33753;52.912;-7.342;2023-05-29T05:47:43;101640.06;;;10.96;100.00
47985;BME280;33753;52.912;-7.342;2023-05-29T05:50:13;101629.91;;;11.17;100.00
47985;BME280;33753;52.912;-7.342;2023-05-29T05:52:42;101623.03;;;11.33;100.00
47985;BME280;33753;52.912;-7.342;2023-05-29T05:55:11;101624.34;;;11.84;100.00
47985;BME280;33753;52.912;-7.342;2023-05-29T05:57:39;101617.91;;;11.95;100.00
47985;BME280;33753;52.912;-7.342;2023-05-29T06:00:07;101610.66;;;12.14;100.00
47985;BME280;33753;52.912;-7.342;2023-05-29T06:02:44;101605.63;;;12.37;100.00
47985;BME280;33753;52.912;-7.342;2023-05-29T06:05:28;101608.84;;;12.76;100.00
47985;BME280;33753;52.912;-7.342;2023-05-29T06:07:57;101608.72;;;13.04;100.00
47985;BME280;33753;52.912;-7.342;2023-05-29T06:10:25;101607.69;;;13.58;100.00
47985;BME280;33753;52.912;-7.342;2023-05-29T06:12:54;101610.88;;;13.88;100.00
47985;BME280;33753;52.912;-7.342;2023-05-29T06:15:28;101613.84;;;14.35;100.00
47985;BME280;33753;52.912;-7.342;2023-05-29T06:17:56;101610.81;;;14.55;100.00
47985;BME280;33753;52.912;-7.342;2023-05-29T06:20:28;101607.78;;;14.75;100.00
47985;BME280;33753;52.912;-7.342;2023-05-29T06:22:57;101616.34;;;15.36;100.00
47985;BME280;33753;52.912;-7.342;2023-05-29T06:25:29;101604.22;;;15.55;100.00
47985;BME280;33753;52.912;-7.342;2023-05-29T06:28:00;101604.72;;;15.98;100.00
47985;BME280;33753;52.912;-7.342;2023-05-29T06:30:28;101609.13;;;16.08;100.00
47985;BME280;33753;52.912;-7.342;2023-05-29T06:32:56;101606.38;;;16.54;100.00
47985;BME280;33753;52.912;-7.342;2023-05-29T06:35:31;101607.66;;;16.66;100.00
47985;BME280;33753;52.912;-7.342;2023-05-29T06:38:00;101611.94;;;16.84;100.00
47985;BME280;33753;52.912;-7.342;2023-05-29T06:40:31;101608.91;;;17.17;100.00
47985;BME280;33753;52.912;-7.342;2023-05-29T06:43:00;101606.25;;;17.08;100.00
47985;BME280;33753;52.912;-7.342;2023-05-29T06:45:39;101615.03;;;17.19;100.00
47985;BME280;33753;52.912;-7.342;2023-05-29T06:48:08;101614.47;;;17.68;100.00
47985;BME280;33753;52.912;-7.342;2023-05-29T06:50:40;101612.28;;;18.08;100.00
47985;BME280;33753;52.912;-7.342;2023-05-29T06:53:28;101606.25;;;18.56;100.00
47985;BME280;33753;52.912;-7.342;2023-05-29T06:56:00;101605.31;;;18.71;100.00
47985;BME280;33753;52.912;-7.342;2023-05-29T06:58:30;101606.56;;;19.25;100.00
47985;BME280;33753;52.912;-7.342;2023-05-29T07:00:58;101608.81;;;19.43;100.00
47985;BME280;33753;52.912;-7.342;2023-05-29T07:03:32;101614.97;;;19.51;100.00
47985;BME280;33753;52.912;-7.342;2023-05-29T07:06:04;101614.97;;;19.87;100.00
47985;BME280;33753;52.912;-7.342;2023-05-29T07:08:33;101617.38;;;19.68;100.00
47985;BME280;33753;52.912;-7.342;2023-05-29T07:11:02;101603.59;;;20.03;100.00
47985;BME280;33753;52.912;-7.342;2023-05-29T07:13:31;101604.53;;;20.50;100.00
47985;BME280;33753;52.912;-7.342;2023-05-29T07:16:00;101605.81;;;20.28;100.00
47985;BME280;33753;52.912;-7.342;2023-05-29T07:18:49;101606.72;;;20.68;100.00
47985;BME280;33753;52.912;-7.342;2023-05-29T07:21:19;101616.63;;;21.30;100.00
47985;BME280;33753;52.912;-7.342;2023-05-29T07:23:48;101608.31;;;21.50;100.00
47985;BME280;33753;52.912;-7.342;2023-05-29T07:26:18;101606.19;;;21.58;100.00
47985;BME280;33753;52.912;-7.342;2023-05-29T07:28:49;101606.66;;;21.29;100.00
47985;BME280;33753;52.912;-7.342;2023-05-29T07:31:17;101601.75;;;21.44;100.00
47985;BME280;33753;52.912;-7.342;2023-05-29T07:33:49;101608.13;;;21.51;100.00
47985;BME280;33753;52.912;-7.342;2023-05-29T07:36:20;101610.91;;;21.31;100.00
47985;BME280;33753;52.912;-7.342;2023-05-29T07:38:51;101613.06;;;20.96;100.00
47985;BME280;33753;52.912;-7.342;2023-05-29T07:41:21;101613.84;;;21.56;100.00
47985;BME280;33753;52.912;-7.342;2023-05-29T07:43:53;101615.75;;;22.01;100.00
47985;BME280;33753;52.912;-7.342;2023-05-29T07:46:23;101613.34;;;22.57;100.00
47985;BME280;33753;52.912;-7.342;2023-05-29T07:49:02;101612.34;;;22.76;100.00
47985;BME280;33753;52.912;-7.342;2023-05-29T07:51:33;101614.13;;;22.64;100.00
47985;BME280;33753;52.912;-7.342;2023-05-29T07:54:01;101607.25;;;22.48;100.00
47985;BME280;33753;52.912;-7.342;2023-05-29T07:56:31;101609.09;;;22.54;100.00
47985;BME280;33753;52.912;-7.342;2023-05-29T07:59:01;101613.63;;;22.74;100.00
47985;BME280;33753;52.912;-7.342;2023-05-29T08:01:31;101614.03;;;23.28;100.00
47985;BME280;33753;52.912;-7.342;2023-05-29T08:04:00;101614.34;;;23.75;100.00
47985;BME280;33753;52.912;-7.342;2023-05-29T08:06:31;101616.09;;;23.70;100.00
47985;BME280;33753;52.912;-7.342;2023-05-29T08:09:03;101614.41;;;23.87;100.00
47985;BME280;33753;52.912;-7.342;2023-05-29T08:11:32;101617.31;;;23.37;100.00
47985;BME280;33753;52.912;-7.342;2023-05-29T08:14:00;101612.25;;;24.08;100.00
47985;BME280;33753;52.912;-7.342;2023-05-29T08:16:30;101614.53;;;24.11;100.00
47985;BME280;33753;52.912;-7.342;2023-05-29T08:18:58;101617.19;;;24.18;100.00
47985;BME280;33753;52.912;-7.342;2023-05-29T08:21:26;101613.16;;;24.62;100.00
47985;BME280;33753;52.912;-7.342;2023-05-29T08:23:55;101612.69;;;24.65;100.00
47985;BME280;33753;52.912;-7.342;2023-05-29T08:26:25;101613.16;;;24.02;100.00
47985;BME280;33753;52.912;-7.342;2023-05-29T08:28:55;101617.78;;;24.08;100.00
47985;BME280;33753;52.912;-7.342;2023-05-29T08:31:23;101615.97;;;24.44;100.00
47985;BME280;33753;52.912;-7.342;2023-05-29T08:33:52;101624.97;;;24.70;100.00
47985;BME280;33753;52.912;-7.342;2023-05-29T08:36:22;101619.16;;;23.98;100.00
47985;BME280;33753;52.912;-7.342;2023-05-29T08:38:51;101620.03;;;24.29;100.00
47985;BME280;33753;52.912;-7.342;2023-05-29T08:41:21;101618.84;;;24.07;100.00
47985;BME280;33753;52.912;-7.342;2023-05-29T08:43:52;101620.25;;;24.70;100.00
47985;BME280;33753;52.912;-7.342;2023-05-29T08:46:21;101628.75;;;25.34;100.00
47985;BME280;33753;52.912;-7.342;2023-05-29T08:48:49;101618.34;;;25.65;100.00
47985;BME280;33753;52.912;-7.342;2023-05-29T08:51:20;101615.03;;;25.92;100.00
47985;BME280;33753;52.912;-7.342;2023-05-29T08:53:49;101609.59;;;26.26;100.00
47985;BME280;33753;52.912;-7.342;2023-05-29T08:56:19;101613.69;;;27.03;100.00
47985;BME280;33753;52.912;-7.342;2023-05-29T08:59:02;101607.50;;;27.74;100.00
47985;BME280;33753;52.912;-7.342;2023-05-29T09:01:34;101615.44;;;28.37;100.00
47985;BME280;33753;52.912;-7.342;2023-05-29T09:04:03;101617.72;;;27.91;100.00
47985;BME280;33753;52.912;-7.342;2023-05-29T09:06:32;101625.66;;;27.21;100.00
47985;BME280;33753;52.912;-7.342;2023-05-29T09:09:00;101623.31;;;26.79;100.00
47985;BME280;33753;52.912;-7.342;2023-05-29T09:11:31;101619.94;;;26.94;100.00
47985;BME280;33753;52.912;-7.342;2023-05-29T09:13:59;101625.25;;;26.78;100.00
47985;BME280;33753;52.912;-7.342;2023-05-29T09:16:31;101610.97;;;26.58;100.00
47985;BME280;33753;52.912;-7.342;2023-05-29T09:19:05;101607.19;;;26.01;100.00
47985;BME280;33753;52.912;-7.342;2023-05-29T09:21:37;101615.91;;;25.81;100.00
47985;BME280;33753;52.912;-7.342;2023-05-29T09:24:06;101615.03;;;25.92;100.00
47985;BME280;33753;52.912;-7.342;2023-05-29T09:26:34;101621.84;;;25.73;100.00
47985;BME280;33753;52.912;-7.342;2023-05-29T09:29:03;101623.56;;;25.91;100.00
47985;BME280;33753;52.912;-7.342;2023-05-29T09:31:35;101619.81;;;25.68;100.00
47985;BME280;33753;52.912;-7.342;2023-05-29T09:34:04;101617.66;;;25.23;100.00
47985;BME280;33753;52.912;-7.342;2023-05-29T09:36:32;101617.31;;;25.95;100.00
47985;BME280;33753;52.912;-7.342;2023-05-29T09:39:02;101625.25;;;25.39;100.00
47985;BME280;33753;52.912;-7.342;2023-05-29T09:41:43;101623.03;;;24.70;100.00
47985;BME280;33753;52.912;-7.342;2023-05-29T09:44:12;101610.31;;;24.39;100.00
47985;BME280;33753;52.912;-7.342;2023-05-29T09:46:42;101608.56;;;24.26;100.00
47985;BME280;33753;52.912;-7.342;2023-05-29T09:49:12;101626.19;;;24.13;100.00
47985;BME280;33753;52.912;-7.342;2023-05-29T09:51:44;101614.00;;;24.32;100.00
47985;BME280;33753;52.912;-7.342;2023-05-29T09:54:15;101611.97;;;24.28;100.00
47985;BME280;33753;52.912;-7.342;2023-05-29T09:56:44;101610.31;;;24.81;100.00
47985;BME280;33753;52.912;-7.342;2023-05-29T09:59:14;101598.50;;;24.97;100.00
47985;BME280;33753;52.912;-7.342;2023-05-29T10:01:49;101603.22;;;25.44;100.00
47985;BME280;33753;52.912;-7.342;2023-05-29T10:04:24;101601.72;;;25.53;100.00
47985;BME280;33753;52.912;-7.342;2023-05-29T10:06:52;101614.41;;;25.26;100.00
47985;BME280;33753;52.912;-7.342;2023-05-29T10:09:24;101617.03;;;25.56;100.00
47985;BME280;33753;52.912;-7.342;2023-05-29T10:11:55;101611.00;;;25.59;100.00
47985;BME280;33753;52.912;-7.342;2023-05-29T10:14:27;101611.78;;;26.24;100.00
47985;BME280;33753;52.912;-7.342;2023-05-29T10:16:59;101603.34;;;25.38;100.00
47985;BME280;33753;52.912;-7.342;2023-05-29T10:19:30;101610.03;;;26.06;100.00
47985;BME280;33753;52.912;-7.342;2023-05-29T10:22:00;101608.31;;;26.17;100.00
47985;BME280;33753;52.912;-7.342;2023-05-29T10:24:30;101602.59;;;26.07;100.00
47985;BME280;33753;52.912;-7.342;2023-05-29T10:27:00;101601.03;;;25.58;100.00
47985;BME280;33753;52.912;-7.342;2023-05-29T10:29:34;101597.66;;;26.26;100.00
47985;BME280;33753;52.912;-7.342;2023-05-29T10:32:07;101604.16;;;26.31;100.00
47985;BME280;33753;52.912;-7.342;2023-05-29T10:34:42;101602.41;;;26.13;100.00
47985;BME280;33753;52.912;-7.342;2023-05-29T10:37:17;101602.16;;;26.15;100.00
47985;BME280;33753;52.912;-7.342;2023-05-29T10:39:48;101591.50;;;26.07;100.00
47985;BME280;33753;52.912;-7.342;2023-05-29T10:45:04;101596.03;;;25.72;100.00
47985;BME280;33753;52.912;-7.342;2023-05-29T10:47:41;101604.41;;;25.89;100.00
47985;BME280;33753;52.912;-7.342;2023-05-29T10:50:13;101599.16;;;26.16;100.00
47985;BME280;33753;52.912;-7.342;2023-05-29T10:53:02;101600.56;;;26.65;100.00
47985;BME280;33753;52.912;-7.342;2023-05-29T10:55:33;101604.28;;;25.43;100.00
47985;BME280;33753;52.912;-7.342;2023-05-29T10:58:05;101603.81;;;25.87;100.00
47985;BME280;33753;52.912;-7.342;2023-05-29T11:00:39;101594.13;;;26.30;100.00
47985;BME280;33753;52.912;-7.342;2023-05-29T11:03:17;101591.19;;;26.83;100.00
47985;BME280;33753;52.912;-7.342;2023-05-29T11:05:56;101590.97;;;26.38;100.00
47985;BME280;33753;52.912;-7.342;2023-05-29T11:08:33;101598.00;;;26.00;100.00
47985;BME280;33753;52.912;-7.342;2023-05-29T11:11:06;101595.41;;;25.82;100.00
47985;BME280;33753;52.912;-7.342;2023-05-29T11:13:39;101593.38;;;25.77;100.00
47985;BME280;33753;52.912;-7.342;2023-05-29T11:16:19;101584.16;;;26.00;100.00
47985;BME280;33753;52.912;-7.342;2023-05-29T11:18:54;101586.59;;;25.85;100.00
47985;BME280;33753;52.912;-7.342;2023-05-29T11:21:29;101585.63;;;25.39;100.00
47985;BME280;33753;52.912;-7.342;2023-05-29T11:24:01;101582.22;;;24.54;100.00
47985;BME280;33753;52.912;-7.342;2023-05-29T11:26:36;101580.94;;;24.80;100.00
47985;BME280;33753;52.912;-7.342;2023-05-29T11:29:11;101581.25;;;24.18;100.00
47985;BME280;33753;52.912;-7.342;2023-05-29T11:31:44;101588.72;;;23.68;100.00
47985;BME280;33753;52.912;-7.342;2023-05-29T11:34:20;101577.38;;;24.07;100.00
47985;BME280;33753;52.912;-7.342;2023-05-29T11:36:54;101583.22;;;24.71;100.00
47985;BME280;33753;52.912;-7.342;2023-05-29T11:39:28;101587.34;;;24.50;100.00
47985;BME280;33753;52.912;-7.342;2023-05-29T11:42:01;101586.22;;;23.97;100.00
47985;BME280;33753;52.912;-7.342;2023-05-29T11:44:35;101592.06;;;23.70;100.00
47985;BME280;33753;52.912;-7.342;2023-05-29T11:47:08;101581.44;;;23.55;100.00
47985;BME280;33753;52.912;-7.342;2023-05-29T11:49:43;101581.56;;;23.23;100.00
47985;BME280;33753;52.912;-7.342;2023-05-29T11:52:13;101581.22;;;22.69;100.00
47985;BME280;33753;52.912;-7.342;2023-05-29T11:54:46;101587.06;;;22.54;100.00
47985;BME280;33753;52.912;-7.342;2023-05-29T11:57:18;101590.06;;;22.78;100.00
47985;BME280;33753;52.912;-7.342;2023-05-29T11:59:51;101582.88;;;22.95;100.00
47985;BME280;33753;52.912;-7.342;2023-05-29T12:02:30;101579.72;;;23.17;100.00
47985;BME280;33753;52.912;-7.342;2023-05-29T12:05:02;101583.56;;;23.53;100.00
47985;BME280;33753;52.912;-7.342;2023-05-29T12:07:37;101587.41;;;23.52;100.00
47985;BME280;33753;52.912;-7.342;2023-05-29T12:10:10;101586.03;;;23.61;100.00
47985;BME280;33753;52.912;-7.342;2023-05-29T12:12:47;101579.28;;;23.39;100.00
47985;BME280;33753;52.912;-7.342;2023-05-29T12:15:20;101580.13;;;23.39;100.00
47985;BME280;33753;52.912;-7.342;2023-05-29T12:17:54;101575.97;;;23.05;100.00
47985;BME280;33753;52.912;-7.342;2023-05-29T12:20:32;101566.38;;;22.38;100.00
47985;BME280;33753;52.912;-7.342;2023-05-29T12:23:06;101577.78;;;22.42;100.00
47985;BME280;33753;52.912;-7.342;2023-05-29T12:25:37;101562.19;;;23.05;100.00
47985;BME280;33753;52.912;-7.342;2023-05-29T12:28:11;101564.63;;;22.94;100.00
47985;BME280;33753;52.912;-7.342;2023-05-29T12:30:49;101565.22;;;22.78;100.00
47985;BME280;33753;52.912;-7.342;2023-05-29T12:33:27;101569.69;;;22.98;100.00
47985;BME280;33753;52.912;-7.342;2023-05-29T12:36:09;101568.13;;;22.33;100.00
47985;BME280;33753;52.912;-7.342;2023-05-29T12:38:49;101575.75;;;22.31;100.00
47985;BME280;33753;52.912;-7.342;2023-05-29T12:41:22;101561.25;;;22.42;100.00
47985;BME280;33753;52.912;-7.342;2023-05-29T12:43:52;101571.28;;;22.61;100.00
47985;BME280;33753;52.912;-7.342;2023-05-29T12:46:26;101567.41;;;22.44;100.00
47985;BME280;33753;52.912;-7.342;2023-05-29T12:48:59;101577.97;;;22.15;100.00
47985;BME280;33753;52.912;-7.342;2023-05-29T12:51:46;101568.03;;;22.07;100.00
47985;BME280;33753;52.912;-7.342;2023-05-29T12:54:20;101570.28;;;21.85;100.00
47985;BME280;33753;52.912;-7.342;2023-05-29T12:56:48;101564.38;;;21.82;100.00